createdAt,value
2023-10-18T00:00:34.202Z,2.40
2023-10-18T00:03:05.374Z,2.35
2023-10-18T00:05:32.993Z,2.33
2023-10-18T00:08:00.673Z,2.53
2023-10-18T00:10:28.802Z,2.42
2023-10-18T00:12:57.139Z,2.85
2023-10-18T00:15:25.159Z,2.45
2023-10-18T00:17:52.977Z,2.75
2023-10-18T00:22:57.602Z,2.33
2023-10-18T00:25:24.216Z,2.30
2023-10-18T00:27:51.907Z,2.58
2023-10-18T00:30:19.608Z,3.05
2023-10-18T00:35:21.645Z,2.47
2023-10-18T00:37:50.874Z,2.20
2023-10-18T00:40:32.403Z,2.75
2023-10-18T00:43:23.479Z,2.60
2023-10-18T00:45:52.908Z,2.75
2023-10-18T00:48:24.696Z,2.28
2023-10-18T00:50:53.675Z,2.60
2023-10-18T00:53:23.927Z,2.70
2023-10-18T00:55:58.275Z,2.65
2023-10-18T01:00:57.614Z,2.60
2023-10-18T01:03:33.228Z,2.67
2023-10-18T01:06:07.992Z,2.78
2023-10-18T01:08:38.946Z,2.95
2023-10-18T01:11:08.783Z,2.83
2023-10-18T01:13:42.475Z,2.63
2023-10-18T01:16:22.591Z,2.65
2023-10-18T01:18:53.684Z,2.70
2023-10-18T01:21:22.918Z,2.92
2023-10-18T01:23:57.529Z,2.60
2023-10-18T01:26:37.534Z,2.35
2023-10-18T01:29:05.656Z,2.55
2023-10-18T01:31:34.537Z,2.70
2023-10-18T01:34:04.971Z,2.42
2023-10-18T01:36:33.193Z,2.58
2023-10-18T01:39:01.215Z,2.60
2023-10-18T01:41:31.847Z,2.67
2023-10-18T01:44:13.946Z,2.63
2023-10-18T01:46:49.639Z,2.80
2023-10-18T01:49:26.412Z,2.83
2023-10-18T01:51:55.235Z,2.47
2023-10-18T01:54:26.544Z,2.35
2023-10-18T01:57:01.931Z,2.38
2023-10-18T01:59:29.963Z,2.90
2023-10-18T02:02:01.816Z,2.20
2023-10-18T02:04:48.576Z,2.75
2023-10-18T02:07:19.791Z,2.33
2023-10-18T02:09:51.871Z,2.35
2023-10-18T02:12:21.010Z,2.80
2023-10-18T02:14:49.735Z,2.47
2023-10-18T02:17:19.581Z,2.78
2023-10-18T02:19:48.377Z,3.05
2023-10-18T02:22:17.376Z,2.47
2023-10-18T02:24:45.738Z,2.53
2023-10-18T02:27:20.794Z,2.60
2023-10-18T02:29:48.691Z,2.20
2023-10-18T02:32:34.018Z,2.50
2023-10-18T02:35:05.675Z,2.70
2023-10-18T02:37:33.251Z,2.63
2023-10-18T02:40:10.727Z,2.90
2023-10-18T02:42:39.407Z,2.53
2023-10-18T02:45:14.924Z,2.30
2023-10-18T02:47:43.397Z,2.13
2023-10-18T02:52:43.992Z,2.30
2023-10-18T02:55:14.747Z,2.70
2023-10-18T02:57:47.576Z,2.25
2023-10-18T03:00:18.646Z,2.20
2023-10-18T03:02:46.159Z,2.60
2023-10-18T03:05:14.098Z,2.00
2023-10-18T03:10:28.109Z,2.88
2023-10-18T03:12:56.558Z,2.60
2023-10-18T03:15:24.666Z,2.70
2023-10-18T03:17:54.963Z,2.80
2023-10-18T03:20:28.018Z,2.50
2023-10-18T03:22:56.626Z,3.28
2023-10-18T03:25:32.148Z,2.80
2023-10-18T03:28:05.393Z,3.30
2023-10-18T03:31:02.387Z,3.00
2023-10-18T03:33:31.632Z,2.58
2023-10-18T03:36:21.202Z,2.58
2023-10-18T03:38:55.846Z,3.08
2023-10-18T03:44:04.839Z,2.60
2023-10-18T03:46:48.338Z,2.83
2023-10-18T03:49:33.108Z,2.50
2023-10-18T03:52:07.684Z,2.70
2023-10-18T03:54:53.973Z,2.83
2023-10-18T03:57:28.957Z,3.20
2023-10-18T04:00:10.467Z,2.72
2023-10-18T04:02:36.858Z,2.53
2023-10-18T04:05:19.388Z,2.72
2023-10-18T04:07:46.883Z,2.70
2023-10-18T04:10:18.311Z,2.55
2023-10-18T04:12:46.617Z,3.00
2023-10-18T04:15:30.951Z,2.85
2023-10-18T04:18:14.321Z,3.20
2023-10-18T04:20:47.912Z,2.70
2023-10-18T04:23:16.154Z,3.22
2023-10-18T04:28:15.382Z,3.15
2023-10-18T04:30:43.836Z,2.65
2023-10-18T04:33:12.899Z,3.10
2023-10-18T04:35:46.954Z,3.33
2023-10-18T04:38:24.841Z,3.13
2023-10-18T04:41:00.921Z,3.60
2023-10-18T04:43:33.336Z,2.92
2023-10-18T04:46:05.295Z,3.47
2023-10-18T04:49:06.730Z,3.10
2023-10-18T04:51:34.674Z,3.00
2023-10-18T04:56:45.078Z,2.58
2023-10-18T04:59:17.812Z,3.15
2023-10-18T05:02:01.201Z,3.20
2023-10-18T05:04:37.414Z,2.80
2023-10-18T05:07:14.341Z,3.50
2023-10-18T05:09:50.278Z,2.85
2023-10-18T05:12:20.642Z,4.10
2023-10-18T05:15:10.587Z,3.42
2023-10-18T05:17:44.200Z,2.78
2023-10-18T05:20:20.917Z,3.42
2023-10-18T05:22:51.259Z,3.15
2023-10-18T05:25:21.792Z,3.55
2023-10-18T05:28:12.002Z,3.22
2023-10-18T05:31:00.960Z,3.40
2023-10-18T05:33:43.445Z,3.15
2023-10-18T05:36:26.468Z,3.63
2023-10-18T05:38:54.188Z,3.35
2023-10-18T05:41:29.999Z,3.42
2023-10-18T05:44:00.496Z,3.55
2023-10-18T05:46:29.290Z,3.33
2023-10-18T05:48:58.542Z,3.83
2023-10-18T05:51:39.767Z,4.05
2023-10-18T05:54:07.067Z,3.53
2023-10-18T05:56:35.094Z,3.55
2023-10-18T05:59:29.469Z,4.05
2023-10-18T06:02:02.255Z,3.78
2023-10-18T06:04:48.241Z,4.38
2023-10-18T06:07:21.412Z,3.75
2023-10-18T06:09:56.993Z,5.13
2023-10-18T06:12:28.286Z,4.50
2023-10-18T06:14:58.289Z,4.65
2023-10-18T06:17:45.741Z,4.82
2023-10-18T06:20:28.748Z,4.53
2023-10-18T06:23:19.434Z,3.97
2023-10-18T06:25:50.302Z,5.00
2023-10-18T06:28:26.136Z,4.35
2023-10-18T06:30:55.242Z,4.53
2023-10-18T06:33:23.046Z,4.30
2023-10-18T06:38:25.470Z,4.53
2023-10-18T06:41:07.149Z,5.35
2023-10-18T06:43:33.956Z,5.05
2023-10-18T06:46:01.944Z,4.68
2023-10-18T06:51:01.210Z,4.70
2023-10-18T06:53:29.995Z,5.03
2023-10-18T06:56:07.865Z,4.75
2023-10-18T06:58:38.057Z,5.57
2023-10-18T07:01:12.041Z,5.45
2023-10-18T07:03:39.628Z,6.05
2023-10-18T07:06:28.838Z,5.30
2023-10-18T07:08:57.424Z,5.38
2023-10-18T07:11:38.217Z,5.82
2023-10-18T07:14:13.888Z,5.45
2023-10-18T07:16:43.986Z,4.70
2023-10-18T07:19:30.657Z,5.38
2023-10-18T07:22:01.531Z,5.38
2023-10-18T07:24:39.266Z,5.15
2023-10-18T07:27:10.323Z,5.18
2023-10-18T07:29:38.353Z,5.78
2023-10-18T07:32:14.698Z,5.53
2023-10-18T07:34:43.579Z,6.03
2023-10-18T07:37:19.105Z,5.55
2023-10-18T07:39:57.445Z,5.65
2023-10-18T07:42:27.544Z,4.07
2023-10-18T07:44:56.737Z,5.07
2023-10-18T07:47:26.520Z,5.18
2023-10-18T07:50:01.604Z,4.80
2023-10-18T07:52:28.056Z,4.93
2023-10-18T07:54:55.599Z,5.68
2023-10-18T07:57:32.428Z,5.07
2023-10-18T08:00:19.911Z,5.35
2023-10-18T08:02:46.368Z,4.30
2023-10-18T08:05:13.306Z,4.53
2023-10-18T08:07:43.412Z,5.30
2023-10-18T08:10:10.900Z,4.32
2023-10-18T08:12:38.632Z,5.28
2023-10-18T08:15:15.477Z,3.70
2023-10-18T08:17:43.330Z,5.00
2023-10-18T08:20:39.654Z,5.20
2023-10-18T08:23:20.739Z,5.25
2023-10-18T08:25:52.677Z,4.35
2023-10-18T08:28:19.993Z,5.30
2023-10-18T08:30:50.337Z,5.18
2023-10-18T08:33:20.561Z,5.20
2023-10-18T08:35:48.425Z,5.68
2023-10-18T08:40:44.231Z,4.55
2023-10-18T08:43:39.036Z,5.70
2023-10-18T08:46:06.897Z,5.43
2023-10-18T08:48:39.438Z,5.30
2023-10-18T08:51:07.000Z,3.83
2023-10-18T08:53:36.569Z,3.80
2023-10-18T08:56:06.505Z,4.95
2023-10-18T08:58:34.433Z,4.07
2023-10-18T09:01:02.257Z,4.60
2023-10-18T09:06:05.598Z,3.88
2023-10-18T09:08:40.086Z,4.40
2023-10-18T09:11:35.629Z,4.78
2023-10-18T09:14:10.263Z,3.97
2023-10-18T09:16:43.729Z,4.95
2023-10-18T09:19:12.398Z,4.80
2023-10-18T09:22:02.768Z,4.80
2023-10-18T09:24:32.336Z,4.68
2023-10-18T09:27:01.892Z,4.00
2023-10-18T09:29:31.002Z,4.90
2023-10-18T09:32:04.292Z,5.00
2023-10-18T09:34:35.605Z,4.80
2023-10-18T09:37:05.477Z,4.40
2023-10-18T09:39:39.445Z,4.35
2023-10-18T09:42:14.206Z,4.43
2023-10-18T09:44:43.025Z,4.93
2023-10-18T09:47:13.395Z,5.15
2023-10-18T09:49:44.847Z,4.40
2023-10-18T09:52:14.926Z,5.10
2023-10-18T09:54:51.287Z,4.40
2023-10-18T09:57:26.955Z,5.30
2023-10-18T09:59:58.051Z,5.25
2023-10-18T10:02:26.821Z,4.55
2023-10-18T10:05:05.797Z,4.60
2023-10-18T10:07:40.757Z,5.05
2023-10-18T10:10:10.177Z,4.68
2023-10-18T10:12:43.747Z,4.68
2023-10-18T10:15:18.624Z,4.72
2023-10-18T10:18:01.954Z,5.10
2023-10-18T10:20:33.717Z,4.70
2023-10-18T10:23:07.435Z,5.00
2023-10-18T10:25:55.926Z,4.65
2023-10-18T10:29:08.569Z,4.45
2023-10-18T10:31:58.005Z,5.43
2023-10-18T10:34:29.870Z,5.28
2023-10-18T10:37:24.278Z,5.10
2023-10-18T10:40:14.536Z,4.35
2023-10-18T10:42:48.059Z,4.40
2023-10-18T10:45:36.817Z,4.35
2023-10-18T10:48:28.028Z,4.57
2023-10-18T10:51:18.032Z,4.50
2023-10-18T10:53:59.720Z,4.00
2023-10-18T10:56:33.417Z,4.45
2023-10-18T10:59:08.465Z,4.63
2023-10-18T11:02:07.693Z,4.32
2023-10-18T11:05:07.811Z,4.65
2023-10-18T11:10:08.395Z,4.10
2023-10-18T11:12:36.438Z,4.47
2023-10-18T11:15:05.558Z,4.85
2023-10-18T11:17:36.166Z,4.10
2023-10-18T11:20:19.294Z,4.55
2023-10-18T11:22:48.849Z,4.38
2023-10-18T11:25:21.335Z,4.20
2023-10-18T11:27:49.041Z,4.20
2023-10-18T11:30:17.731Z,4.60
2023-10-18T11:32:49.421Z,4.28
2023-10-18T11:35:47.588Z,4.18
2023-10-18T11:38:29.544Z,4.25
2023-10-18T11:40:57.429Z,4.03
2023-10-18T11:43:27.462Z,3.85
2023-10-18T11:46:08.684Z,4.20
2023-10-18T11:48:37.461Z,4.13
2023-10-18T11:51:07.570Z,4.10
2023-10-18T11:53:36.577Z,3.50
2023-10-18T11:56:09.737Z,3.95
2023-10-18T11:58:36.743Z,3.58
2023-10-18T12:03:45.295Z,4.10
2023-10-18T12:06:13.246Z,3.65
2023-10-18T12:09:04.564Z,3.92
2023-10-18T12:11:32.651Z,3.47
2023-10-18T12:14:00.667Z,3.75
2023-10-18T12:16:31.317Z,3.50
2023-10-18T12:19:00.023Z,3.28
2023-10-18T12:21:30.430Z,3.45
2023-10-18T12:24:01.385Z,2.80
2023-10-18T12:26:29.070Z,2.83
2023-10-18T12:28:56.938Z,3.00
2023-10-18T12:31:28.081Z,2.78
2023-10-18T12:34:03.993Z,2.85
2023-10-18T12:36:38.946Z,2.78
2023-10-18T12:39:11.184Z,2.40
2023-10-18T12:41:43.614Z,3.17
2023-10-18T12:44:30.833Z,2.65
2023-10-18T12:47:01.074Z,2.83
2023-10-18T12:49:33.295Z,2.53
2023-10-18T12:52:01.733Z,2.67
2023-10-18T12:54:34.926Z,2.67
2023-10-18T12:57:21.708Z,3.10
2023-10-18T12:59:58.558Z,2.72
2023-10-18T13:02:44.628Z,2.50
2023-10-18T13:05:15.115Z,2.65
2023-10-18T13:07:44.844Z,2.85
2023-10-18T13:10:15.704Z,2.70
2023-10-18T13:13:06.068Z,2.60
2023-10-18T13:15:36.672Z,2.55
2023-10-18T13:18:04.329Z,2.60
2023-10-18T13:23:08.011Z,2.67
2023-10-18T13:25:38.863Z,2.63
2023-10-18T13:28:07.340Z,2.30
2023-10-18T13:30:34.106Z,2.70
2023-10-18T13:33:03.024Z,2.53
2023-10-18T13:35:35.294Z,2.10
2023-10-18T13:38:04.866Z,2.80
2023-10-18T13:40:38.128Z,2.65
2023-10-18T13:43:06.303Z,2.45
2023-10-18T13:45:34.829Z,2.40
2023-10-18T13:48:03.878Z,2.38
2023-10-18T13:50:40.983Z,2.80
2023-10-18T13:53:14.162Z,2.80
2023-10-18T13:55:43.840Z,2.88
2023-10-18T13:58:13.974Z,2.70
2023-10-18T14:00:43.660Z,2.40
2023-10-18T14:03:21.277Z,2.80
2023-10-18T14:05:51.591Z,2.80
2023-10-18T14:08:19.841Z,3.03
2023-10-18T14:10:47.503Z,2.55
2023-10-18T14:15:44.712Z,2.53
2023-10-18T14:18:12.730Z,2.80
2023-10-18T14:20:44.410Z,2.70
2023-10-18T14:23:12.275Z,2.30
2023-10-18T14:25:39.241Z,2.65
2023-10-18T14:28:06.966Z,2.33
2023-10-18T14:30:37.653Z,2.42
2023-10-18T14:33:11.971Z,2.33
2023-10-18T14:35:42.759Z,2.60
2023-10-18T14:38:14.305Z,2.90
2023-10-18T14:41:00.298Z,2.95
2023-10-18T14:43:33.088Z,2.83
2023-10-18T14:46:01.481Z,2.45
2023-10-18T14:48:29.012Z,2.53
2023-10-18T14:53:25.849Z,3.03
2023-10-18T14:55:52.227Z,2.80
2023-10-18T14:58:22.894Z,2.25
2023-10-18T15:00:52.151Z,2.63
2023-10-18T15:03:23.539Z,2.45
2023-10-18T15:05:55.125Z,2.40
2023-10-18T15:08:23.550Z,2.70
2023-10-18T15:10:51.612Z,2.35
2023-10-18T15:13:19.214Z,2.50
2023-10-18T15:15:46.954Z,2.47
2023-10-18T15:18:15.829Z,2.25
2023-10-18T15:20:44.448Z,2.28
2023-10-18T15:23:12.701Z,2.20
2023-10-18T15:25:42.598Z,2.60
2023-10-18T15:28:10.087Z,2.60
2023-10-18T15:30:37.740Z,2.85
2023-10-18T15:33:09.018Z,2.50
2023-10-18T15:35:38.601Z,3.05
2023-10-18T15:38:06.479Z,2.85
2023-10-18T15:40:34.476Z,2.97
2023-10-18T15:43:02.232Z,3.58
2023-10-18T15:45:31.336Z,3.10
2023-10-18T15:48:01.434Z,2.72
2023-10-18T15:50:29.474Z,3.17
2023-10-18T15:52:59.178Z,3.53
2023-10-18T15:55:27.100Z,3.30
2023-10-18T15:57:55.035Z,2.97
2023-10-18T16:00:22.759Z,3.05
2023-10-18T16:02:51.815Z,3.00
2023-10-18T16:05:25.744Z,3.03
2023-10-18T16:07:54.921Z,2.58
2023-10-18T16:10:24.395Z,2.90
2023-10-18T16:12:54.331Z,2.53
2023-10-18T16:15:25.763Z,2.50
2023-10-18T16:17:55.988Z,3.03
2023-10-18T16:20:25.795Z,2.85
2023-10-18T16:22:53.445Z,2.85
2023-10-18T16:27:49.985Z,2.92
2023-10-18T16:30:17.924Z,3.17
2023-10-18T16:32:45.455Z,3.58
2023-10-18T16:35:17.130Z,3.53
2023-10-18T16:37:47.858Z,3.00
2023-10-18T16:40:19.768Z,3.20
2023-10-18T16:42:47.794Z,2.80
2023-10-18T16:45:20.879Z,2.90
2023-10-18T16:47:48.764Z,2.95
2023-10-18T16:50:17.370Z,3.00
2023-10-18T16:52:45.189Z,2.80
2023-10-18T16:55:15.364Z,3.38
2023-10-18T16:57:42.955Z,2.75
2023-10-18T17:02:45.247Z,2.47
2023-10-18T17:05:13.951Z,2.80
2023-10-18T17:07:44.305Z,2.75
2023-10-18T17:10:20.540Z,2.70
2023-10-18T17:12:48.980Z,2.70
2023-10-18T17:15:17.156Z,2.70
2023-10-18T17:17:44.882Z,2.40
2023-10-18T17:20:18.763Z,2.83
2023-10-18T17:22:46.519Z,2.88
2023-10-18T17:25:18.169Z,2.70
2023-10-18T17:27:46.722Z,2.70
2023-10-18T17:30:14.848Z,2.78
2023-10-18T17:32:43.429Z,2.67
2023-10-18T17:35:13.520Z,3.00
2023-10-18T17:37:45.166Z,2.83
2023-10-18T17:40:14.682Z,3.15
2023-10-18T17:42:42.451Z,2.92
2023-10-18T17:45:13.645Z,2.90
2023-10-18T17:47:43.299Z,2.60
2023-10-18T17:50:14.356Z,2.80
2023-10-18T17:52:45.386Z,2.70
2023-10-18T17:55:15.886Z,2.53
2023-10-18T17:57:47.412Z,2.67
2023-10-18T18:00:40.288Z,2.72
2023-10-18T18:03:08.285Z,3.00
2023-10-18T18:05:40.082Z,4.47
2023-10-18T18:08:20.357Z,8.57
2023-10-18T18:10:50.647Z,7.90
2023-10-18T18:13:22.738Z,5.57
2023-10-18T18:15:51.460Z,4.63
2023-10-18T18:18:20.846Z,3.85
2023-10-18T18:20:52.091Z,3.95
2023-10-18T18:23:24.239Z,2.70
2023-10-18T18:25:52.875Z,3.05
2023-10-18T18:28:20.398Z,3.45
2023-10-18T18:30:48.656Z,2.78
2023-10-18T18:33:16.926Z,2.60
2023-10-18T18:35:45.708Z,2.97
2023-10-18T18:38:14.550Z,2.60
2023-10-18T18:40:42.510Z,2.85
2023-10-18T18:45:37.338Z,3.03
2023-10-18T18:48:05.566Z,2.50
2023-10-18T18:50:36.467Z,2.58
2023-10-18T18:53:04.599Z,2.30
2023-10-18T18:55:35.459Z,2.95
2023-10-18T18:58:03.095Z,2.60
2023-10-18T19:03:02.337Z,2.85
2023-10-18T19:05:32.823Z,2.55
2023-10-18T19:08:00.780Z,2.70
2023-10-18T19:10:28.667Z,3.00
2023-10-18T19:12:57.769Z,2.85
2023-10-18T19:15:27.534Z,2.60
2023-10-18T19:17:54.998Z,2.97
2023-10-18T19:20:23.945Z,2.90
2023-10-18T19:22:55.567Z,2.90
2023-10-18T19:25:23.604Z,2.75
2023-10-18T19:27:51.415Z,2.88
2023-10-18T19:30:20.643Z,2.78
2023-10-18T19:32:48.370Z,2.90
2023-10-18T19:35:16.401Z,2.63
2023-10-18T19:37:47.052Z,3.28
2023-10-18T19:40:14.720Z,2.95
2023-10-18T19:45:13.959Z,3.08
2023-10-18T19:47:42.596Z,3.20
2023-10-18T19:50:10.781Z,3.15
2023-10-18T19:52:39.017Z,3.17
2023-10-18T19:55:08.485Z,3.17
2023-10-18T19:57:36.188Z,2.40
2023-10-18T20:00:08.553Z,2.90
2023-10-18T20:02:37.632Z,2.60
2023-10-18T20:05:05.843Z,2.90
2023-10-18T20:07:33.815Z,2.90
2023-10-18T20:10:04.462Z,2.92
2023-10-18T20:12:31.904Z,2.90
2023-10-18T20:15:00.328Z,3.08
2023-10-18T20:17:28.522Z,2.50
2023-10-18T20:19:58.512Z,2.58
2023-10-18T20:22:28.332Z,3.05
2023-10-18T20:24:59.315Z,2.70
2023-10-18T20:27:27.113Z,3.22
2023-10-18T20:29:55.189Z,2.72
2023-10-18T20:32:23.003Z,2.90
2023-10-18T20:34:50.645Z,2.58
2023-10-18T20:39:52.259Z,2.92
2023-10-18T20:42:23.530Z,2.80
2023-10-18T20:44:51.178Z,2.90
2023-10-18T20:47:19.390Z,3.00
2023-10-18T20:49:54.462Z,3.53
2023-10-18T20:52:27.678Z,3.30
2023-10-18T20:54:55.766Z,3.05
2023-10-18T20:57:26.485Z,3.25
2023-10-18T20:59:56.460Z,2.72
2023-10-18T21:02:25.445Z,3.25
2023-10-18T21:04:53.218Z,3.70
2023-10-18T21:09:55.301Z,3.45
2023-10-18T21:12:22.868Z,3.38
2023-10-18T21:14:50.671Z,3.17
2023-10-18T21:17:18.361Z,3.53
2023-10-18T21:19:46.108Z,3.72
2023-10-18T21:22:14.405Z,3.45
2023-10-18T21:24:42.859Z,3.85
2023-10-18T21:27:13.768Z,3.67
2023-10-18T21:29:44.303Z,3.78
2023-10-18T21:32:13.034Z,4.78
2023-10-18T21:34:43.104Z,4.43
2023-10-18T21:37:10.782Z,3.90
2023-10-18T21:42:08.444Z,3.75
2023-10-18T21:44:36.421Z,3.67
2023-10-18T21:47:04.672Z,4.28
2023-10-18T21:49:32.560Z,4.05
2023-10-18T21:52:00.150Z,4.38
2023-10-18T21:54:27.872Z,3.83
2023-10-18T21:59:23.667Z,4.47
2023-10-18T22:01:54.174Z,4.20
2023-10-18T22:04:23.467Z,3.80
2023-10-18T22:06:55.368Z,4.38
2023-10-18T22:09:33.389Z,4.57
2023-10-18T22:12:03.833Z,3.90
2023-10-18T22:14:32.250Z,3.92
2023-10-18T22:17:06.407Z,4.15
2023-10-18T22:19:34.656Z,4.13
2023-10-18T22:22:16.001Z,3.90
2023-10-18T22:24:48.366Z,4.15
2023-10-18T22:27:17.596Z,4.75
2023-10-18T22:29:49.835Z,4.70
2023-10-18T22:32:26.221Z,4.28
2023-10-18T22:34:56.776Z,4.82
2023-10-18T22:37:26.764Z,5.20
2023-10-18T22:40:02.838Z,4.75
2023-10-18T22:42:40.013Z,4.50
2023-10-18T22:45:28.328Z,5.05
2023-10-18T22:48:31.248Z,5.35
2023-10-18T22:51:10.700Z,5.13
2023-10-18T22:53:52.603Z,5.00
2023-10-18T22:56:30.762Z,4.75
2023-10-18T22:59:00.648Z,4.82
2023-10-18T23:01:27.175Z,5.65
2023-10-18T23:03:57.515Z,5.90
2023-10-18T23:06:25.436Z,4.82
2023-10-18T23:09:07.447Z,5.40
2023-10-18T23:11:44.367Z,5.28
2023-10-18T23:14:27.087Z,5.57
2023-10-18T23:17:13.929Z,5.40
2023-10-18T23:22:33.293Z,4.97
2023-10-18T23:25:22.131Z,4.93
2023-10-18T23:28:08.293Z,5.03
2023-10-18T23:30:58.307Z,5.22
2023-10-18T23:33:32.546Z,5.60
2023-10-18T23:36:02.313Z,5.30
2023-10-18T23:38:39.466Z,5.15
2023-10-18T23:41:11.076Z,5.15
2023-10-18T23:43:41.699Z,5.43
2023-10-18T23:46:28.429Z,5.50
2023-10-18T23:49:15.687Z,5.38
2023-10-18T23:51:54.477Z,6.00
2023-10-18T23:54:22.324Z,6.32
2023-10-18T23:56:52.299Z,6.63
2023-10-18T23:59:40.231Z,7.40
